sensor_id;sensor_type;location;lat;lon;timestamp;temperature;humidity
40960;DHT22;27842;52.272;8.052;2022-12-07T00:01:17;5.30;99.90
40960;DHT22;27842;52.272;8.052;2022-12-07T00:03:45;5.40;99.90
40960;DHT22;27842;52.272;8.052;2022-12-07T00:06:13;5.40;99.90
40960;DHT22;27842;52.272;8.052;2022-12-07T00:08:39;5.30;99.90
40960;DHT22;27842;52.272;8.052;2022-12-07T00:11:19;5.30;99.90
40960;DHT22;27842;52.272;8.052;2022-12-07T00:13:46;5.40;99.90
40960;DHT22;27842;52.272;8.052;2022-12-07T00:16:17;5.40;99.90
40960;DHT22;27842;52.272;8.052;2022-12-07T00:18:43;5.40;99.90
40960;DHT22;27842;52.272;8.052;2022-12-07T00:21:21;5.40;99.90
40960;DHT22;27842;52.272;8.052;2022-12-07T00:23:48;5.40;99.90
40960;DHT22;27842;52.272;8.052;2022-12-07T00:26:25;5.40;99.90
40960;DHT22;27842;52.272;8.052;2022-12-07T00:28:54;5.40;99.90
40960;DHT22;27842;52.272;8.052;2022-12-07T00:31:25;5.40;99.90
40960;DHT22;27842;52.272;8.052;2022-12-07T00:33:51;5.40;99.90
40960;DHT22;27842;52.272;8.052;2022-12-07T00:36:22;5.40;99.90
40960;DHT22;27842;52.272;8.052;2022-12-07T00:38:48;5.40;99.90
40960;DHT22;27842;52.272;8.052;2022-12-07T00:41:16;5.40;99.90
40960;DHT22;27842;52.272;8.052;2022-12-07T00:43:43;5.40;99.90
40960;DHT22;27842;52.272;8.052;2022-12-07T00:46:10;5.30;99.90
40960;DHT22;27842;52.272;8.052;2022-12-07T00:48:35;5.40;99.90
40960;DHT22;27842;52.272;8.052;2022-12-07T00:51:02;5.30;99.90
40960;DHT22;27842;52.272;8.052;2022-12-07T00:53:28;5.30;99.90
40960;DHT22;27842;52.272;8.052;2022-12-07T00:55:54;5.30;99.90
40960;DHT22;27842;52.272;8.052;2022-12-07T00:58:22;5.30;99.90
40960;DHT22;27842;52.272;8.052;2022-12-07T01:00:48;5.30;99.90
40960;DHT22;27842;52.272;8.052;2022-12-07T01:03:15;5.30;99.90
40960;DHT22;27842;52.272;8.052;2022-12-07T01:05:49;5.30;99.90
40960;DHT22;27842;52.272;8.052;2022-12-07T01:08:15;5.30;99.90
40960;DHT22;27842;52.272;8.052;2022-12-07T01:10:41;5.30;99.90
40960;DHT22;27842;52.272;8.052;2022-12-07T01:13:06;5.30;99.90
40960;DHT22;27842;52.272;8.052;2022-12-07T01:15:32;5.30;99.90
40960;DHT22;27842;52.272;8.052;2022-12-07T01:17:57;5.30;99.90
40960;DHT22;27842;52.272;8.052;2022-12-07T01:20:23;5.20;99.90
40960;DHT22;27842;52.272;8.052;2022-12-07T01:22:48;5.20;99.90
40960;DHT22;27842;52.272;8.052;2022-12-07T01:25:14;5.20;99.90
40960;DHT22;27842;52.272;8.052;2022-12-07T01:27:40;5.20;99.90
40960;DHT22;27842;52.272;8.052;2022-12-07T01:30:06;5.30;99.90
40960;DHT22;27842;52.272;8.052;2022-12-07T01:32:33;5.20;99.90
40960;DHT22;27842;52.272;8.052;2022-12-07T01:34:59;5.20;99.90
40960;DHT22;27842;52.272;8.052;2022-12-07T01:37:24;5.20;99.90
40960;DHT22;27842;52.272;8.052;2022-12-07T01:42:25;5.20;99.90
40960;DHT22;27842;52.272;8.052;2022-12-07T01:47:56;5.20;99.90
40960;DHT22;27842;52.272;8.052;2022-12-07T01:50:25;5.20;99.90
40960;DHT22;27842;52.272;8.052;2022-12-07T01:52:52;5.20;99.90
40960;DHT22;27842;52.272;8.052;2022-12-07T01:55:18;5.10;99.90
40960;DHT22;27842;52.272;8.052;2022-12-07T01:57:48;5.10;99.90
40960;DHT22;27842;52.272;8.052;2022-12-07T02:00:15;5.10;99.90
40960;DHT22;27842;52.272;8.052;2022-12-07T02:02:48;5.10;99.90
40960;DHT22;27842;52.272;8.052;2022-12-07T02:05:16;5.10;99.90
40960;DHT22;27842;52.272;8.052;2022-12-07T02:07:42;5.10;99.90
40960;DHT22;27842;52.272;8.052;2022-12-07T02:10:23;5.10;99.90
40960;DHT22;27842;52.272;8.052;2022-12-07T02:12:54;5.00;99.90
40960;DHT22;27842;52.272;8.052;2022-12-07T02:15:22;5.00;99.90
40960;DHT22;27842;52.272;8.052;2022-12-07T02:20:54;5.00;99.90
40960;DHT22;27842;52.272;8.052;2022-12-07T02:29:22;5.00;99.90
40960;DHT22;27842;52.272;8.052;2022-12-07T02:34:31;5.00;99.90
40960;DHT22;27842;52.272;8.052;2022-12-07T02:37:00;4.90;99.90
40960;DHT22;27842;52.272;8.052;2022-12-07T02:42:43;4.90;99.90
40960;DHT22;27842;52.272;8.052;2022-12-07T02:45:12;4.90;99.90
40960;DHT22;27842;52.272;8.052;2022-12-07T02:47:39;4.90;99.90
40960;DHT22;27842;52.272;8.052;2022-12-07T02:50:07;4.90;99.90
40960;DHT22;27842;52.272;8.052;2022-12-07T02:52:33;4.90;99.90
40960;DHT22;27842;52.272;8.052;2022-12-07T02:54:58;4.90;99.90
40960;DHT22;27842;52.272;8.052;2022-12-07T03:00:09;4.80;99.90
40960;DHT22;27842;52.272;8.052;2022-12-07T03:16:27;4.70;99.90
40960;DHT22;27842;52.272;8.052;2022-12-07T03:19:08;4.70;99.90
40960;DHT22;27842;52.272;8.052;2022-12-07T03:21:40;4.70;99.90
40960;DHT22;27842;52.272;8.052;2022-12-07T03:24:11;4.70;99.90
40960;DHT22;27842;52.272;8.052;2022-12-07T03:26:42;4.60;99.90
40960;DHT22;27842;52.272;8.052;2022-12-07T03:29:21;4.60;99.90
40960;DHT22;27842;52.272;8.052;2022-12-07T03:32:01;4.60;99.90
40960;DHT22;27842;52.272;8.052;2022-12-07T03:35:14;4.60;99.90
40960;DHT22;27842;52.272;8.052;2022-12-07T03:37:29;4.60;99.90
40960;DHT22;27842;52.272;8.052;2022-12-07T03:40:13;4.50;99.90
40960;DHT22;27842;52.272;8.052;2022-12-07T03:42:40;4.50;99.90
40960;DHT22;27842;52.272;8.052;2022-12-07T03:45:07;4.50;99.90
40960;DHT22;27842;52.272;8.052;2022-12-07T03:47:38;4.50;99.90
40960;DHT22;27842;52.272;8.052;2022-12-07T03:50:17;4.50;99.90
40960;DHT22;27842;52.272;8.052;2022-12-07T03:52:54;4.50;99.90
40960;DHT22;27842;52.272;8.052;2022-12-07T03:55:28;4.50;99.90
40960;DHT22;27842;52.272;8.052;2022-12-07T03:58:00;4.50;99.90
40960;DHT22;27842;52.272;8.052;2022-12-07T04:00:26;4.50;99.90
40960;DHT22;27842;52.272;8.052;2022-12-07T04:02:53;4.50;99.90
40960;DHT22;27842;52.272;8.052;2022-12-07T04:05:19;4.50;99.90
40960;DHT22;27842;52.272;8.052;2022-12-07T04:07:44;4.50;99.90
40960;DHT22;27842;52.272;8.052;2022-12-07T04:10:15;4.50;99.90
40960;DHT22;27842;52.272;8.052;2022-12-07T04:12:41;4.40;99.90
40960;DHT22;27842;52.272;8.052;2022-12-07T04:15:07;4.40;99.90
40960;DHT22;27842;52.272;8.052;2022-12-07T04:17:33;4.40;99.90
40960;DHT22;27842;52.272;8.052;2022-12-07T04:19:58;4.40;99.90
40960;DHT22;27842;52.272;8.052;2022-12-07T04:22:24;4.40;99.90
40960;DHT22;27842;52.272;8.052;2022-12-07T04:24:50;4.40;99.90
40960;DHT22;27842;52.272;8.052;2022-12-07T04:27:15;4.40;99.90
40960;DHT22;27842;52.272;8.052;2022-12-07T04:29:41;4.30;99.90
40960;DHT22;27842;52.272;8.052;2022-12-07T04:32:06;4.40;99.90
40960;DHT22;27842;52.272;8.052;2022-12-07T04:34:32;4.30;99.90
40960;DHT22;27842;52.272;8.052;2022-12-07T04:36:58;4.30;99.90
40960;DHT22;27842;52.272;8.052;2022-12-07T04:39:33;4.40;99.90
40960;DHT22;27842;52.272;8.052;2022-12-07T04:41:59;4.40;99.90
40960;DHT22;27842;52.272;8.052;2022-12-07T04:44:26;4.40;99.90
40960;DHT22;27842;52.272;8.052;2022-12-07T04:46:52;4.40;99.90
40960;DHT22;27842;52.272;8.052;2022-12-07T04:49:18;4.40;99.90
40960;DHT22;27842;52.272;8.052;2022-12-07T04:51:45;4.40;99.90
40960;DHT22;27842;52.272;8.052;2022-12-07T04:54:12;4.40;99.90
40960;DHT22;27842;52.272;8.052;2022-12-07T04:56:37;4.40;99.90
40960;DHT22;27842;52.272;8.052;2022-12-07T04:59:03;4.40;99.90
40960;DHT22;27842;52.272;8.052;2022-12-07T05:01:29;4.40;99.90
40960;DHT22;27842;52.272;8.052;2022-12-07T05:03:55;4.40;99.90
40960;DHT22;27842;52.272;8.052;2022-12-07T05:06:21;4.40;99.90
40960;DHT22;27842;52.272;8.052;2022-12-07T05:08:47;4.40;99.90
40960;DHT22;27842;52.272;8.052;2022-12-07T05:11:16;4.40;99.90
40960;DHT22;27842;52.272;8.052;2022-12-07T05:14:09;4.40;99.90
40960;DHT22;27842;52.272;8.052;2022-12-07T05:16:35;4.40;99.90
40960;DHT22;27842;52.272;8.052;2022-12-07T05:19:01;4.40;99.90
40960;DHT22;27842;52.272;8.052;2022-12-07T05:21:27;4.40;99.90
40960;DHT22;27842;52.272;8.052;2022-12-07T05:23:53;4.40;99.90
40960;DHT22;27842;52.272;8.052;2022-12-07T05:26:18;4.40;99.90
40960;DHT22;27842;52.272;8.052;2022-12-07T05:28:44;4.40;99.90
40960;DHT22;27842;52.272;8.052;2022-12-07T05:31:10;4.40;99.90
40960;DHT22;27842;52.272;8.052;2022-12-07T05:33:35;4.40;99.90
40960;DHT22;27842;52.272;8.052;2022-12-07T05:36:02;4.40;99.90
40960;DHT22;27842;52.272;8.052;2022-12-07T05:38:31;4.50;99.90
40960;DHT22;27842;52.272;8.052;2022-12-07T05:41:05;4.50;99.90
40960;DHT22;27842;52.272;8.052;2022-12-07T05:43:31;4.40;99.90
40960;DHT22;27842;52.272;8.052;2022-12-07T05:45:57;4.40;99.90
40960;DHT22;27842;52.272;8.052;2022-12-07T05:48:24;4.40;99.90
40960;DHT22;27842;52.272;8.052;2022-12-07T05:50:50;4.40;99.90
40960;DHT22;27842;52.272;8.052;2022-12-07T05:53:16;4.40;99.90
40960;DHT22;27842;52.272;8.052;2022-12-07T05:55:42;4.40;99.90
40960;DHT22;27842;52.272;8.052;2022-12-07T05:58:08;4.40;99.90
40960;DHT22;27842;52.272;8.052;2022-12-07T06:00:57;4.40;99.90
40960;DHT22;27842;52.272;8.052;2022-12-07T06:03:22;4.40;99.90
40960;DHT22;27842;52.272;8.052;2022-12-07T06:05:48;4.40;99.90
40960;DHT22;27842;52.272;8.052;2022-12-07T06:08:14;4.40;99.90
40960;DHT22;27842;52.272;8.052;2022-12-07T06:10:47;4.30;99.90
40960;DHT22;27842;52.272;8.052;2022-12-07T06:13:33;4.30;99.90
40960;DHT22;27842;52.272;8.052;2022-12-07T06:15:59;4.30;99.90
40960;DHT22;27842;52.272;8.052;2022-12-07T06:18:24;4.30;99.90
40960;DHT22;27842;52.272;8.052;2022-12-07T06:20:50;4.30;99.90
40960;DHT22;27842;52.272;8.052;2022-12-07T06:23:15;4.30;99.90
40960;DHT22;27842;52.272;8.052;2022-12-07T06:25:45;4.30;99.90
40960;DHT22;27842;52.272;8.052;2022-12-07T06:28:11;4.30;99.90
40960;DHT22;27842;52.272;8.052;2022-12-07T06:30:37;4.30;99.90
40960;DHT22;27842;52.272;8.052;2022-12-07T06:33:02;4.30;99.90
40960;DHT22;27842;52.272;8.052;2022-12-07T06:35:28;4.30;99.90
40960;DHT22;27842;52.272;8.052;2022-12-07T06:37:54;4.30;99.90
40960;DHT22;27842;52.272;8.052;2022-12-07T06:40:20;4.30;99.90
40960;DHT22;27842;52.272;8.052;2022-12-07T06:42:45;4.40;99.90
40960;DHT22;27842;52.272;8.052;2022-12-07T06:45:11;4.40;99.90
40960;DHT22;27842;52.272;8.052;2022-12-07T06:47:36;4.40;99.90
40960;DHT22;27842;52.272;8.052;2022-12-07T06:50:03;4.40;99.90
40960;DHT22;27842;52.272;8.052;2022-12-07T06:52:29;4.40;99.90
40960;DHT22;27842;52.272;8.052;2022-12-07T06:54:55;4.40;99.90
40960;DHT22;27842;52.272;8.052;2022-12-07T06:57:21;4.40;99.90
40960;DHT22;27842;52.272;8.052;2022-12-07T06:59:47;4.40;99.90
40960;DHT22;27842;52.272;8.052;2022-12-07T07:02:17;4.30;99.90
40960;DHT22;27842;52.272;8.052;2022-12-07T07:04:43;4.30;99.90
40960;DHT22;27842;52.272;8.052;2022-12-07T07:07:09;4.30;99.90
40960;DHT22;27842;52.272;8.052;2022-12-07T07:09:38;4.30;99.90
40960;DHT22;27842;52.272;8.052;2022-12-07T07:12:04;4.30;99.90
40960;DHT22;27842;52.272;8.052;2022-12-07T07:14:29;4.30;99.90
40960;DHT22;27842;52.272;8.052;2022-12-07T07:16:55;4.30;99.90
40960;DHT22;27842;52.272;8.052;2022-12-07T07:19:20;4.30;99.90
40960;DHT22;27842;52.272;8.052;2022-12-07T07:21:46;4.30;99.90
40960;DHT22;27842;52.272;8.052;2022-12-07T07:24:12;4.30;99.90
40960;DHT22;27842;52.272;8.052;2022-12-07T07:26:37;4.30;99.90
40960;DHT22;27842;52.272;8.052;2022-12-07T07:29:03;4.30;99.90
40960;DHT22;27842;52.272;8.052;2022-12-07T07:31:29;4.30;99.90
40960;DHT22;27842;52.272;8.052;2022-12-07T07:33:54;4.30;99.90
40960;DHT22;27842;52.272;8.052;2022-12-07T07:36:20;4.30;99.90
40960;DHT22;27842;52.272;8.052;2022-12-07T07:38:45;4.30;99.90
40960;DHT22;27842;52.272;8.052;2022-12-07T07:41:14;4.30;99.90
40960;DHT22;27842;52.272;8.052;2022-12-07T07:43:40;4.20;99.90
40960;DHT22;27842;52.272;8.052;2022-12-07T07:46:05;4.20;99.90
40960;DHT22;27842;52.272;8.052;2022-12-07T07:48:31;4.20;99.90
40960;DHT22;27842;52.272;8.052;2022-12-07T07:50:57;4.20;99.90
40960;DHT22;27842;52.272;8.052;2022-12-07T07:53:22;4.20;99.90
40960;DHT22;27842;52.272;8.052;2022-12-07T07:55:52;4.20;99.90
40960;DHT22;27842;52.272;8.052;2022-12-07T07:58:19;4.30;99.90
40960;DHT22;27842;52.272;8.052;2022-12-07T08:00:44;4.20;99.90
40960;DHT22;27842;52.272;8.052;2022-12-07T08:03:10;4.30;99.90
40960;DHT22;27842;52.272;8.052;2022-12-07T08:05:37;4.20;99.90
40960;DHT22;27842;52.272;8.052;2022-12-07T08:08:03;4.20;99.90
40960;DHT22;27842;52.272;8.052;2022-12-07T08:10:29;4.20;99.90
40960;DHT22;27842;52.272;8.052;2022-12-07T08:12:54;4.20;99.90
40960;DHT22;27842;52.272;8.052;2022-12-07T08:15:41;4.20;99.90
40960;DHT22;27842;52.272;8.052;2022-12-07T08:18:07;4.30;99.90
40960;DHT22;27842;52.272;8.052;2022-12-07T08:20:34;4.20;99.90
40960;DHT22;27842;52.272;8.052;2022-12-07T08:23:01;4.30;99.90
40960;DHT22;27842;52.272;8.052;2022-12-07T08:25:26;4.30;99.90
40960;DHT22;27842;52.272;8.052;2022-12-07T08:27:53;4.30;99.90
40960;DHT22;27842;52.272;8.052;2022-12-07T08:30:23;4.30;99.90
40960;DHT22;27842;52.272;8.052;2022-12-07T08:32:49;4.20;99.90
40960;DHT22;27842;52.272;8.052;2022-12-07T08:35:15;4.30;99.90
40960;DHT22;27842;52.272;8.052;2022-12-07T08:37:41;4.20;99.90
40960;DHT22;27842;52.272;8.052;2022-12-07T08:40:16;4.20;99.90
40960;DHT22;27842;52.272;8.052;2022-12-07T08:42:53;4.20;99.90
40960;DHT22;27842;52.272;8.052;2022-12-07T08:45:20;4.30;99.90
40960;DHT22;27842;52.272;8.052;2022-12-07T08:48:04;4.30;99.90
40960;DHT22;27842;52.272;8.052;2022-12-07T08:50:32;4.30;99.90
40960;DHT22;27842;52.272;8.052;2022-12-07T08:53:00;4.30;99.90
40960;DHT22;27842;52.272;8.052;2022-12-07T08:55:27;4.30;99.90
40960;DHT22;27842;52.272;8.052;2022-12-07T08:57:55;4.30;99.90
40960;DHT22;27842;52.272;8.052;2022-12-07T09:00:20;4.30;99.90
40960;DHT22;27842;52.272;8.052;2022-12-07T09:02:46;4.40;99.90
40960;DHT22;27842;52.272;8.052;2022-12-07T09:05:13;4.40;99.90
40960;DHT22;27842;52.272;8.052;2022-12-07T09:07:41;4.30;99.90
40960;DHT22;27842;52.272;8.052;2022-12-07T09:10:08;4.40;99.90
40960;DHT22;27842;52.272;8.052;2022-12-07T09:12:34;4.40;99.90
40960;DHT22;27842;52.272;8.052;2022-12-07T09:15:00;4.40;99.90
40960;DHT22;27842;52.272;8.052;2022-12-07T09:17:31;4.40;99.90
40960;DHT22;27842;52.272;8.052;2022-12-07T09:19:57;4.40;99.90
40960;DHT22;27842;52.272;8.052;2022-12-07T09:33:36;4.40;99.90
40960;DHT22;27842;52.272;8.052;2022-12-07T09:36:03;4.60;99.90
40960;DHT22;27842;52.272;8.052;2022-12-07T09:38:29;4.60;99.90
40960;DHT22;27842;52.272;8.052;2022-12-07T09:40:56;4.50;99.90
40960;DHT22;27842;52.272;8.052;2022-12-07T09:43:24;4.60;99.90
40960;DHT22;27842;52.272;8.052;2022-12-07T09:45:52;4.60;99.90
40960;DHT22;27842;52.272;8.052;2022-12-07T09:48:37;4.60;99.90
40960;DHT22;27842;52.272;8.052;2022-12-07T09:53:50;4.60;99.90
40960;DHT22;27842;52.272;8.052;2022-12-07T09:56:18;4.60;99.90
40960;DHT22;27842;52.272;8.052;2022-12-07T09:58:45;4.70;99.90
40960;DHT22;27842;52.272;8.052;2022-12-07T10:01:16;4.60;99.90
40960;DHT22;27842;52.272;8.052;2022-12-07T10:06:33;4.70;99.90
40960;DHT22;27842;52.272;8.052;2022-12-07T10:08:58;4.70;99.90
40960;DHT22;27842;52.272;8.052;2022-12-07T10:11:24;4.70;99.90
40960;DHT22;27842;52.272;8.052;2022-12-07T10:13:52;4.70;99.90
40960;DHT22;27842;52.272;8.052;2022-12-07T10:18:54;4.80;99.90
40960;DHT22;27842;52.272;8.052;2022-12-07T10:21:25;4.80;99.90
40960;DHT22;27842;52.272;8.052;2022-12-07T10:26:50;4.80;99.90
40960;DHT22;27842;52.272;8.052;2022-12-07T10:29:28;4.80;99.90
40960;DHT22;27842;52.272;8.052;2022-12-07T10:32:06;4.80;99.90
40960;DHT22;27842;52.272;8.052;2022-12-07T10:34:47;4.90;99.90
40960;DHT22;27842;52.272;8.052;2022-12-07T10:39:44;4.90;99.90
40960;DHT22;27842;52.272;8.052;2022-12-07T10:42:31;4.90;99.90
40960;DHT22;27842;52.272;8.052;2022-12-07T10:45:13;5.00;99.90
40960;DHT22;27842;52.272;8.052;2022-12-07T10:50:58;5.10;99.90
40960;DHT22;27842;52.272;8.052;2022-12-07T10:59:44;5.20;99.90
40960;DHT22;27842;52.272;8.052;2022-12-07T11:02:35;5.20;99.90
40960;DHT22;27842;52.272;8.052;2022-12-07T11:11:00;5.30;99.90
40960;DHT22;27842;52.272;8.052;2022-12-07T11:21:48;5.40;99.90
40960;DHT22;27842;52.272;8.052;2022-12-07T11:24:19;5.40;99.90
40960;DHT22;27842;52.272;8.052;2022-12-07T11:27:28;5.40;99.90
40960;DHT22;27842;52.272;8.052;2022-12-07T11:33:04;5.50;99.90
40960;DHT22;27842;52.272;8.052;2022-12-07T11:38:41;5.50;99.90
40960;DHT22;27842;52.272;8.052;2022-12-07T11:41:09;5.50;99.90
40960;DHT22;27842;52.272;8.052;2022-12-07T11:44:52;5.50;99.90
40960;DHT22;27842;52.272;8.052;2022-12-07T11:46:48;5.50;99.90
40960;DHT22;27842;52.272;8.052;2022-12-07T11:49:23;5.50;99.90
40960;DHT22;27842;52.272;8.052;2022-12-07T11:51:54;5.50;99.90
40960;DHT22;27842;52.272;8.052;2022-12-07T11:54:32;5.60;99.90
40960;DHT22;27842;52.272;8.052;2022-12-07T11:57:04;5.50;99.90
40960;DHT22;27842;52.272;8.052;2022-12-07T11:59:40;5.60;99.90
40960;DHT22;27842;52.272;8.052;2022-12-07T12:02:21;5.50;99.90
40960;DHT22;27842;52.272;8.052;2022-12-07T12:04:59;5.60;99.90
40960;DHT22;27842;52.272;8.052;2022-12-07T12:07:28;5.60;99.90
40960;DHT22;27842;52.272;8.052;2022-12-07T12:10:02;5.60;99.90
40960;DHT22;27842;52.272;8.052;2022-12-07T12:15:38;5.70;99.90
40960;DHT22;27842;52.272;8.052;2022-12-07T12:20:51;5.80;99.90
40960;DHT22;27842;52.272;8.052;2022-12-07T12:25:59;5.90;99.90
40960;DHT22;27842;52.272;8.052;2022-12-07T12:28:41;5.90;99.90
40960;DHT22;27842;52.272;8.052;2022-12-07T12:33:51;5.90;99.90
40960;DHT22;27842;52.272;8.052;2022-12-07T12:46:56;5.90;99.90
40960;DHT22;27842;52.272;8.052;2022-12-07T12:49:31;6.00;99.90
40960;DHT22;27842;52.272;8.052;2022-12-07T12:57:35;5.90;99.90
40960;DHT22;27842;52.272;8.052;2022-12-07T13:02:58;5.90;99.90
40960;DHT22;27842;52.272;8.052;2022-12-07T13:05:31;5.90;99.90
40960;DHT22;27842;52.272;8.052;2022-12-07T13:10:34;5.90;99.90
40960;DHT22;27842;52.272;8.052;2022-12-07T13:16:36;5.90;99.90
40960;DHT22;27842;52.272;8.052;2022-12-07T13:18:41;5.90;99.90
40960;DHT22;27842;52.272;8.052;2022-12-07T13:29:15;6.00;99.90
40960;DHT22;27842;52.272;8.052;2022-12-07T13:31:50;6.00;99.90
40960;DHT22;27842;52.272;8.052;2022-12-07T13:34:33;6.00;99.90
40960;DHT22;27842;52.272;8.052;2022-12-07T13:37:15;6.00;99.90
40960;DHT22;27842;52.272;8.052;2022-12-07T13:39:51;6.00;99.90
40960;DHT22;27842;52.272;8.052;2022-12-07T13:42:34;6.00;99.90
40960;DHT22;27842;52.272;8.052;2022-12-07T13:45:22;6.00;99.90
40960;DHT22;27842;52.272;8.052;2022-12-07T13:48:14;6.00;99.90
40960;DHT22;27842;52.272;8.052;2022-12-07T13:50:48;6.00;99.90
40960;DHT22;27842;52.272;8.052;2022-12-07T13:53:20;6.00;99.90
40960;DHT22;27842;52.272;8.052;2022-12-07T13:55:46;6.00;99.90
40960;DHT22;27842;52.272;8.052;2022-12-07T13:58:12;6.00;99.90
40960;DHT22;27842;52.272;8.052;2022-12-07T14:00:40;6.00;99.90
40960;DHT22;27842;52.272;8.052;2022-12-07T14:05:39;6.00;99.90
40960;DHT22;27842;52.272;8.052;2022-12-07T14:08:22;5.90;99.90
40960;DHT22;27842;52.272;8.052;2022-12-07T14:16:00;5.90;99.90
40960;DHT22;27842;52.272;8.052;2022-12-07T14:18:37;5.90;99.90
40960;DHT22;27842;52.272;8.052;2022-12-07T14:21:24;5.90;99.90
40960;DHT22;27842;52.272;8.052;2022-12-07T14:24:16;5.90;99.90
40960;DHT22;27842;52.272;8.052;2022-12-07T14:26:49;5.90;99.90
40960;DHT22;27842;52.272;8.052;2022-12-07T14:31:44;5.90;99.90
40960;DHT22;27842;52.272;8.052;2022-12-07T14:34:13;5.90;99.90
40960;DHT22;27842;52.272;8.052;2022-12-07T14:36:39;5.90;99.90
40960;DHT22;27842;52.272;8.052;2022-12-07T14:39:04;5.90;99.90
40960;DHT22;27842;52.272;8.052;2022-12-07T14:41:30;5.90;99.90
40960;DHT22;27842;52.272;8.052;2022-12-07T14:44:14;5.90;99.90
40960;DHT22;27842;52.272;8.052;2022-12-07T14:46:40;5.80;99.90
40960;DHT22;27842;52.272;8.052;2022-12-07T14:49:05;5.80;99.90
40960;DHT22;27842;52.272;8.052;2022-12-07T14:51:32;5.80;99.90
40960;DHT22;27842;52.272;8.052;2022-12-07T14:53:58;5.80;99.90
40960;DHT22;27842;52.272;8.052;2022-12-07T14:56:24;5.70;99.90
40960;DHT22;27842;52.272;8.052;2022-12-07T14:58:50;5.60;99.90
40960;DHT22;27842;52.272;8.052;2022-12-07T15:01:16;5.40;99.90
40960;DHT22;27842;52.272;8.052;2022-12-07T15:03:41;5.30;99.90
40960;DHT22;27842;52.272;8.052;2022-12-07T15:06:07;5.20;99.90
40960;DHT22;27842;52.272;8.052;2022-12-07T15:08:34;5.20;99.90
40960;DHT22;27842;52.272;8.052;2022-12-07T15:14:24;5.20;99.90
40960;DHT22;27842;52.272;8.052;2022-12-07T15:16:50;5.10;99.90
40960;DHT22;27842;52.272;8.052;2022-12-07T15:19:21;5.10;99.90
40960;DHT22;27842;52.272;8.052;2022-12-07T15:21:51;5.10;99.90
40960;DHT22;27842;52.272;8.052;2022-12-07T15:24:18;5.10;99.90
40960;DHT22;27842;52.272;8.052;2022-12-07T15:26:43;5.10;99.90
40960;DHT22;27842;52.272;8.052;2022-12-07T15:29:10;5.10;99.90
40960;DHT22;27842;52.272;8.052;2022-12-07T15:31:37;5.10;99.90
40960;DHT22;27842;52.272;8.052;2022-12-07T15:34:03;5.10;99.90
40960;DHT22;27842;52.272;8.052;2022-12-07T15:36:30;5.20;99.90
40960;DHT22;27842;52.272;8.052;2022-12-07T15:38:56;5.20;99.90
40960;DHT22;27842;52.272;8.052;2022-12-07T15:41:23;5.10;99.90
40960;DHT22;27842;52.272;8.052;2022-12-07T15:43:49;5.10;99.90
40960;DHT22;27842;52.272;8.052;2022-12-07T15:46:34;5.10;99.90
40960;DHT22;27842;52.272;8.052;2022-12-07T15:49:01;5.00;99.90
40960;DHT22;27842;52.272;8.052;2022-12-07T15:51:26;5.00;99.90
40960;DHT22;27842;52.272;8.052;2022-12-07T15:53:53;5.00;99.90
40960;DHT22;27842;52.272;8.052;2022-12-07T15:56:19;5.00;99.90
40960;DHT22;27842;52.272;8.052;2022-12-07T15:58:44;4.90;99.90
40960;DHT22;27842;52.272;8.052;2022-12-07T16:01:15;4.90;99.90
40960;DHT22;27842;52.272;8.052;2022-12-07T16:03:41;4.80;99.90
40960;DHT22;27842;52.272;8.052;2022-12-07T16:06:06;4.80;99.90
40960;DHT22;27842;52.272;8.052;2022-12-07T16:08:32;4.80;99.90
40960;DHT22;27842;52.272;8.052;2022-12-07T16:10:58;4.80;99.90
40960;DHT22;27842;52.272;8.052;2022-12-07T16:13:24;4.80;99.90
40960;DHT22;27842;52.272;8.052;2022-12-07T16:15:49;4.80;99.90
40960;DHT22;27842;52.272;8.052;2022-12-07T16:18:15;4.80;99.90
40960;DHT22;27842;52.272;8.052;2022-12-07T16:20:41;4.80;99.90
40960;DHT22;27842;52.272;8.052;2022-12-07T16:23:06;4.80;99.90
40960;DHT22;27842;52.272;8.052;2022-12-07T16:25:32;4.90;99.90
40960;DHT22;27842;52.272;8.052;2022-12-07T16:27:58;4.80;99.90
40960;DHT22;27842;52.272;8.052;2022-12-07T16:30:24;4.90;99.90
40960;DHT22;27842;52.272;8.052;2022-12-07T16:32:51;4.90;99.90
40960;DHT22;27842;52.272;8.052;2022-12-07T16:35:17;4.90;99.90
40960;DHT22;27842;52.272;8.052;2022-12-07T16:37:43;4.90;99.90
40960;DHT22;27842;52.272;8.052;2022-12-07T16:40:10;4.90;99.90
40960;DHT22;27842;52.272;8.052;2022-12-07T16:42:36;4.90;99.90
40960;DHT22;27842;52.272;8.052;2022-12-07T16:45:02;4.90;99.90
40960;DHT22;27842;52.272;8.052;2022-12-07T16:47:28;4.90;99.90
40960;DHT22;27842;52.272;8.052;2022-12-07T16:49:54;4.90;99.90
40960;DHT22;27842;52.272;8.052;2022-12-07T16:52:20;4.90;99.90
40960;DHT22;27842;52.272;8.052;2022-12-07T16:54:47;4.90;99.90
40960;DHT22;27842;52.272;8.052;2022-12-07T16:57:13;4.90;99.90
40960;DHT22;27842;52.272;8.052;2022-12-07T16:59:39;4.80;99.90
40960;DHT22;27842;52.272;8.052;2022-12-07T17:02:04;4.90;99.90
40960;DHT22;27842;52.272;8.052;2022-12-07T17:04:32;4.90;99.90
40960;DHT22;27842;52.272;8.052;2022-12-07T17:06:58;4.90;99.90
40960;DHT22;27842;52.272;8.052;2022-12-07T17:09:24;4.90;99.90
40960;DHT22;27842;52.272;8.052;2022-12-07T17:11:50;4.90;99.90
40960;DHT22;27842;52.272;8.052;2022-12-07T17:14:16;4.90;99.90
40960;DHT22;27842;52.272;8.052;2022-12-07T17:17:00;4.90;99.90
40960;DHT22;27842;52.272;8.052;2022-12-07T17:19:25;4.90;99.90
40960;DHT22;27842;52.272;8.052;2022-12-07T17:21:51;4.90;99.90
40960;DHT22;27842;52.272;8.052;2022-12-07T17:24:16;4.90;99.90
40960;DHT22;27842;52.272;8.052;2022-12-07T17:26:44;4.90;99.90
40960;DHT22;27842;52.272;8.052;2022-12-07T17:29:12;4.90;99.90
40960;DHT22;27842;52.272;8.052;2022-12-07T17:31:38;4.90;99.90
40960;DHT22;27842;52.272;8.052;2022-12-07T17:34:12;4.90;99.90
40960;DHT22;27842;52.272;8.052;2022-12-07T17:36:39;4.90;99.90
40960;DHT22;27842;52.272;8.052;2022-12-07T17:39:10;4.90;99.90
40960;DHT22;27842;52.272;8.052;2022-12-07T17:41:37;4.90;99.90
40960;DHT22;27842;52.272;8.052;2022-12-07T17:44:22;4.80;99.90
40960;DHT22;27842;52.272;8.052;2022-12-07T17:46:50;4.80;99.90
40960;DHT22;27842;52.272;8.052;2022-12-07T17:49:20;4.80;99.90
40960;DHT22;27842;52.272;8.052;2022-12-07T17:51:46;4.80;99.90
40960;DHT22;27842;52.272;8.052;2022-12-07T17:54:30;4.80;99.90
40960;DHT22;27842;52.272;8.052;2022-12-07T17:56:56;4.80;99.90
40960;DHT22;27842;52.272;8.052;2022-12-07T17:59:22;4.80;99.90
40960;DHT22;27842;52.272;8.052;2022-12-07T18:01:48;4.80;99.90
40960;DHT22;27842;52.272;8.052;2022-12-07T18:04:14;4.80;99.90
40960;DHT22;27842;52.272;8.052;2022-12-07T18:06:40;4.80;99.90
40960;DHT22;27842;52.272;8.052;2022-12-07T18:09:05;4.80;99.90
40960;DHT22;27842;52.272;8.052;2022-12-07T18:11:32;4.80;99.90
40960;DHT22;27842;52.272;8.052;2022-12-07T18:13:57;4.70;99.90
40960;DHT22;27842;52.272;8.052;2022-12-07T18:16:25;4.80;99.90
40960;DHT22;27842;52.272;8.052;2022-12-07T18:18:52;4.80;99.90
40960;DHT22;27842;52.272;8.052;2022-12-07T18:21:23;4.70;99.90
40960;DHT22;27842;52.272;8.052;2022-12-07T18:23:51;4.80;99.90
40960;DHT22;27842;52.272;8.052;2022-12-07T18:26:19;4.70;99.90